Time;durP1;ratioP1;P1;durP2;ratioP2;P2;SDS_P1;SDS_P2;PMS_P1;PMS_P2;Temp;Humidity;BMP_temperature;BMP_pressure;BME280_temperature;BME280_humidity;BME280_pressure;Samples;Min_cycle;Max_cycle;Signal;HPM_P1;HPM_P2
2022/01/06 00:06:46;;;;;;;0.00;0.00;;;-2.40;99.90;;;;;;21131774;28;20039;-52
2022/01/06 00:26:55;;;;;;;0.20;0.05;;;-2.40;99.90;;;;;;21130741;28;20085;-51
2022/01/06 00:36:58;;;;;;;0.10;0.00;;;-2.40;99.90;;;;;;21130605;28;20024;-51
2022/01/06 00:47:01;;;;;;;0.00;0.00;;;-2.40;99.90;;;;;;21139185;28;20052;-52
2022/01/06 00:57:04;;;;;;;0.10;0.00;;;-2.40;99.90;;;;;;21145068;28;20035;-50
2022/01/06 01:07:07;;;;;;;0.00;0.00;;;-2.40;99.90;;;;;;21144086;28;20027;-54
2022/01/06 01:17:14;;;;;;;0.15;0.00;;;-2.30;99.90;;;;;;21144275;28;20065;-52
2022/01/06 01:27:21;;;;;;;0.00;0.00;;;-2.40;99.90;;;;;;21142808;28;20032;-54
2022/01/06 01:37:24;;;;;;;0.00;0.00;;;-2.30;99.90;;;;;;21141362;28;20310;-51
2022/01/06 01:47:43;;;;;;;0.08;0.00;;;-2.20;99.90;;;;;;21075649;28;20047;-51
2022/01/06 01:57:45;;;;;;;0.00;0.00;;;-2.20;99.90;;;;;;21055077;28;20513;-52
2022/01/06 02:07:48;;;;;;;0.10;0.00;;;-2.10;99.90;;;;;;21055493;28;20096;-51
2022/01/06 02:17:51;;;;;;;0.00;0.00;;;-2.10;99.90;;;;;;21037973;28;20036;-50
2022/01/06 02:27:55;;;;;;;0.52;0.00;;;-2.00;99.90;;;;;;21053633;28;20032;-50
2022/01/06 02:37:59;;;;;;;0.20;0.00;;;-2.10;99.90;;;;;;21052756;28;20404;-50
2022/01/06 02:48:14;;;;;;;0.00;0.00;;;-2.10;99.90;;;;;;21105317;28;20085;-51
2022/01/06 02:58:21;;;;;;;1.60;0.03;;;-2.00;99.90;;;;;;21135599;28;20096;-49
2022/01/06 03:08:25;;;;;;;0.03;0.00;;;-2.00;99.90;;;;;;21133514;28;20035;-50
2022/01/06 03:18:29;;;;;;;0.25;0.00;;;-2.10;99.90;;;;;;21134176;28;20035;-50
2022/01/06 03:28:31;;;;;;;0.05;0.00;;;-2.00;99.90;;;;;;21135061;28;20043;-50
2022/01/06 03:38:35;;;;;;;0.00;0.00;;;-1.80;99.90;;;;;;21132886;28;20479;-54
2022/01/06 03:48:38;;;;;;;0.00;0.00;;;-1.70;99.90;;;;;;21040427;28;20052;-52
2022/01/06 03:58:40;;;;;;;0.00;0.00;;;-1.70;99.90;;;;;;21047900;28;20113;-50
2022/01/06 04:08:44;;;;;;;1.10;0.00;;;-1.70;99.90;;;;;;21048829;28;20048;-50
2022/01/06 04:18:47;;;;;;;0.00;0.00;;;-1.70;99.90;;;;;;21051589;28;20043;-50
2022/01/06 04:28:50;;;;;;;0.00;0.00;;;-1.80;99.90;;;;;;21062790;28;20032;-50
2022/01/06 04:38:54;;;;;;;0.00;0.00;;;-1.80;99.90;;;;;;21062358;28;20032;-50
2022/01/06 04:48:56;;;;;;;0.00;0.00;;;-1.80;99.90;;;;;;21061365;28;20122;-55
2022/01/06 04:58:59;;;;;;;0.00;0.00;;;-1.90;99.90;;;;;;21060629;28;20380;-52
2022/01/06 05:09:03;;;;;;;0.15;0.00;;;-1.70;99.90;;;;;;21060060;28;20376;-50
2022/01/06 05:19:05;;;;;;;0.00;0.00;;;-1.70;99.90;;;;;;21059340;28;20036;-50
2022/01/06 05:29:10;;;;;;;0.00;0.00;;;-1.70;99.90;;;;;;21057062;28;20365;-51
2022/01/06 05:39:13;;;;;;;0.00;0.00;;;-1.70;99.90;;;;;;21057770;28;20052;-49
2022/01/06 05:49:16;;;;;;;0.00;0.00;;;-1.60;99.90;;;;;;21056433;28;20052;-50
2022/01/06 05:59:19;;;;;;;0.10;0.00;;;-1.60;99.90;;;;;;21055752;28;20096;-51
2022/01/06 06:09:21;;;;;;;0.00;0.00;;;-1.60;99.90;;;;;;21055612;28;20070;-50
2022/01/06 06:19:24;;;;;;;0.00;0.00;;;-1.90;99.90;;;;;;21054583;28;20032;-50
2022/01/06 06:29:26;;;;;;;0.10;0.00;;;-2.00;99.90;;;;;;21053322;28;20441;-50
2022/01/06 06:39:29;;;;;;;0.00;0.00;;;-2.00;99.90;;;;;;21051655;28;20062;-50
2022/01/06 06:49:33;;;;;;;0.10;0.00;;;-2.10;99.90;;;;;;21066873;28;20509;-50
2022/01/06 06:59:36;;;;;;;0.30;0.00;;;-2.10;99.90;;;;;;21068093;28;20063;-52
2022/01/06 07:09:38;;;;;;;4.15;1.13;;;-2.10;99.90;;;;;;21067670;28;20364;-51
2022/01/06 07:19:41;;;;;;;0.00;0.00;;;-2.20;99.90;;;;;;21050372;28;20472;-51
2022/01/06 07:29:43;;;;;;;0.70;0.00;;;-2.20;99.90;;;;;;21066447;28;20109;-50
2022/01/06 07:39:46;;;;;;;0.10;0.00;;;-2.00;99.90;;;;;;21065786;28;20098;-51
2022/01/06 07:49:49;;;;;;;0.00;0.00;;;-1.80;99.90;;;;;;21133744;28;20108;-56
2022/01/06 07:59:52;;;;;;;0.15;0.00;;;-1.70;99.90;;;;;;21148549;28;20105;-50
2022/01/06 08:09:54;;;;;;;3.08;0.85;;;-1.50;99.90;;;;;;21150158;28;20039;-50
2022/01/06 08:19:57;;;;;;;0.57;0.20;;;-1.20;99.90;;;;;;21148279;28;20043;-51
2022/01/06 08:30:00;;;;;;;0.82;0.15;;;-0.80;99.90;;;;;;21131649;28;20606;-51
2022/01/06 08:40:04;;;;;;;0.10;0.00;;;-0.60;99.90;;;;;;21146979;28;20093;-50
2022/01/06 08:50:08;;;;;;;0.00;0.00;;;-0.60;99.90;;;;;;21144792;28;20105;-50
2022/01/06 09:00:11;;;;;;;0.03;0.00;;;-0.80;99.90;;;;;;21145025;28;20544;-52
2022/01/06 09:10:14;;;;;;;0.10;0.00;;;-0.70;99.90;;;;;;21062880;28;20376;-49
2022/01/06 09:20:18;;;;;;;0.30;0.00;;;0.00;99.90;;;;;;21043043;28;20464;-50
2022/01/06 09:30:23;;;;;;;0.20;0.00;;;0.60;98.70;;;;;;21057905;28;20392;-50
2022/01/06 09:40:28;;;;;;;0.20;0.00;;;1.10;99.30;;;;;;21063322;28;20097;-49
2022/01/06 09:50:33;;;;;;;0.00;0.00;;;1.50;98.20;;;;;;21143158;28;20441;-52
2022/01/06 10:00:36;;;;;;;0.28;0.00;;;1.50;96.90;;;;;;21141033;28;20395;-49
2022/01/06 10:10:40;;;;;;;0.20;0.00;;;1.40;95.80;;;;;;21123750;28;20061;-52
2022/01/06 10:20:43;;;;;;;0.57;0.03;;;1.80;96.10;;;;;;21138783;28;20119;-50
2022/01/06 10:30:50;;;;;;;0.60;0.00;;;2.20;95.50;;;;;;21138143;28;20035;-51
2022/01/06 10:40:52;;;;;;;0.40;0.10;;;2.30;95.90;;;;;;21110734;28;20044;-51
2022/01/06 10:51:00;;;;;;;0.10;0.00;;;2.20;93.30;;;;;;21051567;28;20445;-51
2022/01/06 11:01:03;;;;;;;0.00;0.00;;;2.20;92.50;;;;;;21051162;28;20027;-51
2022/01/06 11:21:14;;;;;;;0.00;0.00;;;2.70;92.00;;;;;;21051802;28;20531;-51
2022/01/06 11:31:18;;;;;;;0.22;0.00;;;3.00;92.10;;;;;;21048743;28;20036;-50
2022/01/06 11:41:34;;;;;;;0.10;0.10;;;2.50;90.70;;;;;;21061910;28;20044;-51
2022/01/06 11:51:38;;;;;;;0.55;0.00;;;3.10;90.90;;;;;;21132602;28;20044;-53
2022/01/06 12:01:50;;;;;;;0.35;0.00;;;3.00;89.10;;;;;;21131838;28;20538;-51
2022/01/06 12:12:01;;;;;;;0.20;0.00;;;2.70;90.00;;;;;;21134162;28;20061;-52
2022/01/06 12:22:09;;;;;;;2.50;0.00;;;3.20;87.40;;;;;;21131456;28;20048;-51
2022/01/06 12:32:13;;;;;;;0.10;0.00;;;3.10;86.60;;;;;;21131216;28;20640;-51
2022/01/06 12:42:16;;;;;;;0.00;0.00;;;3.10;88.60;;;;;;21138350;28;20040;-52
2022/01/06 12:52:19;;;;;;;0.32;0.00;;;2.80;85.60;;;;;;21146245;28;20036;-52
2022/01/06 13:02:21;;;;;;;0.00;0.00;;;3.10;85.50;;;;;;21129759;28;20039;-52
2022/01/06 13:12:26;;;;;;;0.10;0.00;;;2.90;85.80;;;;;;21144616;28;20047;-52
2022/01/06 13:32:58;;;;;;;0.00;0.00;;;2.00;86.70;;;;;;21142534;28;20031;-51
2022/01/06 13:43:01;;;;;;;0.00;0.00;;;1.80;86.70;;;;;;21140514;28;20059;-50
2022/01/06 13:53:40;;;;;;;0.30;0.00;;;1.70;87.70;;;;;;21066167;28;20039;-50
2022/01/06 14:03:44;;;;;;;1.67;0.00;;;1.70;86.10;;;;;;21042672;28;20085;-50
2022/01/06 14:13:49;;;;;;;0.15;0.00;;;1.70;89.30;;;;;;21054674;28;20081;-51
2022/01/06 14:23:52;;;;;;;0.17;0.10;;;1.40;89.20;;;;;;21088353;28;20436;-51
2022/01/06 14:33:55;;;;;;;0.17;0.10;;;1.10;90.60;;;;;;21137200;28;20076;-55
2022/01/06 14:43:57;;;;;;;0.10;0.00;;;0.90;90.80;;;;;;21137198;28;20137;-51
2022/01/06 14:54:03;;;;;;;0.25;0.20;;;0.80;90.90;;;;;;21137011;28;20507;-50
2022/01/06 15:04:05;;;;;;;0.30;0.10;;;0.60;91.30;;;;;;21105496;28;20081;-54
2022/01/06 15:14:08;;;;;;;1.15;0.15;;;0.30;91.90;;;;;;21052116;28;20089;-55
2022/01/06 15:24:11;;;;;;;0.25;0.05;;;-0.30;93.00;;;;;;21050120;28;20089;-53
2022/01/06 15:34:14;;;;;;;0.40;0.10;;;-0.90;95.30;;;;;;21049295;28;20028;-51
2022/01/06 15:44:19;;;;;;;0.63;0.00;;;-1.10;94.60;;;;;;21086606;28;20105;-56
2022/01/06 15:54:23;;;;;;;0.08;0.03;;;-0.90;93.30;;;;;;21150501;28;20591;-53
2022/01/06 16:14:51;;;;;;;0.38;0.00;;;-1.50;94.70;;;;;;21137033;28;20475;-52
2022/01/06 16:24:55;;;;;;;0.25;0.10;;;-1.20;95.10;;;;;;21147454;28;20559;-54
2022/01/06 16:35:01;;;;;;;0.68;0.00;;;-1.40;95.80;;;;;;21130406;28;20085;-51
2022/01/06 16:45:05;;;;;;;0.00;0.00;;;-1.80;96.30;;;;;;21102515;28;20120;-52
2022/01/06 16:55:09;;;;;;;0.32;0.10;;;-2.20;96.90;;;;;;21061916;28;20036;-51
2022/01/06 17:05:15;;;;;;;0.05;0.00;;;-2.40;95.60;;;;;;21060793;28;20036;-52
2022/01/06 17:15:17;;;;;;;0.25;0.00;;;-2.10;96.90;;;;;;21059744;28;20070;-53
2022/01/06 17:25:20;;;;;;;0.00;0.00;;;-2.40;95.60;;;;;;21057596;28;20040;-52
2022/01/06 17:35:23;;;;;;;0.20;0.00;;;-2.40;96.30;;;;;;21058491;28;20028;-52
2022/01/06 17:45:26;;;;;;;0.30;0.00;;;-2.80;97.50;;;;;;21080926;28;20443;-55
2022/01/06 17:55:30;;;;;;;0.22;0.08;;;-2.90;95.80;;;;;;21056778;28;20391;-54
2022/01/06 18:05:33;;;;;;;2.95;0.20;;;-2.30;96.00;;;;;;21001824;28;20086;-53
2022/01/06 18:15:38;;;;;;;1.15;0.30;;;-2.20;93.70;;;;;;20971389;28;20056;-52
2022/01/06 18:25:41;;;;;;;0.05;0.00;;;-2.30;94.90;;;;;;21020729;28;20535;-52
2022/01/06 18:35:44;;;;;;;0.05;0.00;;;-2.20;93.50;;;;;;21052417;28;20044;-51
2022/01/06 18:45:49;;;;;;;0.10;0.00;;;-2.20;93.70;;;;;;21102685;28;20059;-52
2022/01/06 18:55:54;;;;;;;0.20;0.10;;;-2.10;92.50;;;;;;21086251;28;20048;-58
2022/01/06 19:05:57;;;;;;;0.10;0.10;;;-2.10;92.60;;;;;;21136416;28;20560;-61
2022/01/06 19:16:02;;;;;;;0.90;0.13;;;-2.00;92.30;;;;;;21125589;28;20035;-61
2022/01/06 19:26:06;;;;;;;0.15;0.10;;;-2.00;92.40;;;;;;21134740;28;20449;-62
2022/01/06 19:36:11;;;;;;;0.28;0.00;;;-2.00;91.70;;;;;;21133132;28;20027;-59
2022/01/06 19:46:17;;;;;;;0.30;0.00;;;-2.10;91.40;;;;;;21133256;28;20109;-56
2022/01/06 19:56:21;;;;;;;0.00;0.00;;;-2.00;91.10;;;;;;21131417;28;20032;-59
2022/01/06 20:06:24;;;;;;;1.58;0.10;;;-2.10;91.00;;;;;;21130812;28;20040;-59
2022/01/06 20:16:27;;;;;;;0.10;0.00;;;-2.20;91.40;;;;;;21136301;28;20069;-60
2022/01/06 20:26:30;;;;;;;0.60;0.10;;;-2.30;91.60;;;;;;20984625;22;20170;-61
2022/01/06 20:36:35;;;;;;;0.00;0.00;;;-2.60;91.80;;;;;;20896677;28;20412;-62
2022/01/06 20:46:38;;;;;;;0.00;0.00;;;-2.80;92.10;;;;;;20898482;28;20071;-54
2022/01/06 20:56:42;;;;;;;0.22;0.00;;;-3.20;94.00;;;;;;20895979;28;20106;-55
2022/01/06 21:06:45;;;;;;;0.03;0.00;;;-3.20;93.30;;;;;;20909187;28;20082;-59
2022/01/06 21:16:50;;;;;;;0.43;0.00;;;-3.30;93.70;;;;;;20876418;28;20182;-62
2022/01/06 21:26:53;;;;;;;0.00;0.00;;;-3.60;93.80;;;;;;20900581;28;20595;-62
2022/01/06 21:36:57;;;;;;;0.00;0.00;;;-3.70;94.60;;;;;;20918908;28;20098;-62
2022/01/06 21:47:00;;;;;;;0.10;0.00;;;-3.70;94.80;;;;;;20907633;28;20102;-61
2022/01/06 21:57:08;;;;;;;0.50;0.30;;;-3.70;94.50;;;;;;20906668;28;20090;-58
2022/01/06 22:07:14;;;;;;;0.10;0.00;;;-3.50;93.60;;;;;;20906577;28;20037;-57
2022/01/06 22:17:25;;;;;;;0.50;0.00;;;-3.40;94.10;;;;;;20904321;28;20033;-57
2022/01/06 22:27:27;;;;;;;0.35;0.08;;;-3.60;93.40;;;;;;20904437;28;20053;-56
2022/01/06 22:37:31;;;;;;;0.38;0.00;;;-3.60;94.00;;;;;;20886570;28;20051;-55
2022/01/06 22:47:37;;;;;;;0.00;0.00;;;-3.60;94.10;;;;;;20902423;28;20037;-61
2022/01/06 22:57:42;;;;;;;0.32;0.10;;;-3.90;94.30;;;;;;20901464;28;20082;-60
2022/01/06 23:07:45;;;;;;;0.00;0.00;;;-4.00;95.00;;;;;;20885758;28;20037;-61
2022/01/06 23:17:48;;;;;;;0.00;0.00;;;-4.30;96.60;;;;;;20900168;28;20500;-61
2022/01/06 23:27:51;;;;;;;0.03;0.00;;;-4.90;97.50;;;;;;20899923;28;20393;-57
2022/01/06 23:37:54;;;;;;;0.22;0.00;;;-5.20;98.70;;;;;;20645282;28;20135;-57
2022/01/06 23:47:56;;;;;;;0.08;0.00;;;-5.50;99.90;;;;;;20709948;28;20045;-56
2022/01/06 23:58:01;;;;;;;0.00;0.00;;;-5.70;99.90;;;;;;20709088;28;20081;-61
